Time;durP1;ratioP1;P1;durP2;ratioP2;P2;SDS_P1;SDS_P2;PMS_P1;PMS_P2;Temp;Humidity;BMP_temperature;BMP_pressure;BME280_temperature;BME280_humidity;BME280_pressure;Samples;Min_cycle;Max_cycle;Signal;HPM_P1;HPM_P2
2022/11/08 00:01:57;;;;;;;5.83;2.10;;;;;;;;;;4996491;28;20816;-66
2022/11/08 00:04:23;;;;;;;6.47;1.97;;;;;;;;;;4996023;28;20422;-66
2022/11/08 00:15:05;;;;;;;33.43;14.60;;;;;;;;;;4995952;28;20987;-66
2022/11/08 00:17:31;;;;;;;4.70;4.27;;;;;;;;;;4996556;28;20457;-66
2022/11/08 00:19:57;;;;;;;2.97;2.87;;;;;;;;;;4996209;28;20770;-66
2022/11/08 00:22:24;;;;;;;3.77;2.70;;;;;;;;;;4995946;28;20488;-66
2022/11/08 00:24:53;;;;;;;3.83;3.53;;;;;;;;;;4995883;28;20783;-66
2022/11/08 00:27:19;;;;;;;3.77;3.50;;;;;;;;;;4995578;28;20418;-66
2022/11/08 00:29:46;;;;;;;2.40;2.40;;;;;;;;;;4995527;28;20428;-66
2022/11/08 00:32:13;;;;;;;3.70;2.40;;;;;;;;;;4995485;28;20820;-66
2022/11/08 00:34:39;;;;;;;9.90;3.50;;;;;;;;;;4995592;28;20460;-66
2022/11/08 00:37:05;;;;;;;3.20;3.00;;;;;;;;;;4995356;28;20780;-66
2022/11/08 00:39:31;;;;;;;3.80;1.77;;;;;;;;;;4995383;28;20969;-66
2022/11/08 00:41:57;;;;;;;2.00;1.90;;;;;;;;;;4995333;28;20905;-66
2022/11/08 00:44:23;;;;;;;2.10;2.00;;;;;;;;;;4995283;28;20427;-66
2022/11/08 00:46:50;;;;;;;2.63;2.10;;;;;;;;;;4995149;28;20559;-66
2022/11/08 00:49:16;;;;;;;3.80;2.03;;;;;;;;;;4995439;28;20425;-66
2022/11/08 00:51:42;;;;;;;3.37;2.27;;;;;;;;;;4995047;28;20420;-66
2022/11/08 00:54:08;;;;;;;2.40;2.20;;;;;;;;;;4995298;28;20425;-66
2022/11/08 00:56:34;;;;;;;2.70;2.30;;;;;;;;;;4994834;28;20472;-66
2022/11/08 00:59:00;;;;;;;5.47;2.60;;;;;;;;;;4995161;28;20413;-66
2022/11/08 01:01:26;;;;;;;2.27;2.17;;;;;;;;;;4995092;28;20782;-66
2022/11/08 01:03:52;;;;;;;2.50;2.40;;;;;;;;;;4994923;28;20936;-66
2022/11/08 01:06:19;;;;;;;2.10;2.10;;;;;;;;;;4995059;28;20426;-66
2022/11/08 01:08:45;;;;;;;2.93;2.43;;;;;;;;;;4994654;28;20472;-66
2022/11/08 01:11:13;;;;;;;2.63;2.47;;;;;;;;;;4994717;28;20429;-66
2022/11/08 01:13:38;;;;;;;3.27;2.03;;;;;;;;;;4994671;28;20901;-66
2022/11/08 01:16:06;;;;;;;1.80;1.80;;;;;;;;;;4994540;28;20503;-66
2022/11/08 01:18:32;;;;;;;2.50;1.90;;;;;;;;;;4994903;28;20425;-66
2022/11/08 01:20:58;;;;;;;1.90;1.77;;;;;;;;;;4994380;28;20421;-66
2022/11/08 01:23:24;;;;;;;2.17;1.90;;;;;;;;;;4994768;28;20421;-67
2022/11/08 01:25:50;;;;;;;1.53;1.53;;;;;;;;;;4994642;28;20468;-66
2022/11/08 01:28:16;;;;;;;2.07;1.87;;;;;;;;;;4993377;28;20413;-66
2022/11/08 01:30:43;;;;;;;1.70;1.60;;;;;;;;;;4994398;28;20929;-66
2022/11/08 01:33:09;;;;;;;2.23;2.13;;;;;;;;;;4994390;28;20424;-66
2022/11/08 01:35:36;;;;;;;7.43;2.23;;;;;;;;;;4994258;28;20476;-66
2022/11/08 01:38:02;;;;;;;2.20;2.10;;;;;;;;;;4994545;28;20456;-66
2022/11/08 01:40:28;;;;;;;2.13;2.03;;;;;;;;;;4994446;28;20433;-66
2022/11/08 01:42:54;;;;;;;7.43;2.03;;;;;;;;;;4994478;28;20430;-66
2022/11/08 01:45:39;;;;;;;8.70;2.00;;;;;;;;;;4994146;28;20500;-66
2022/11/08 01:48:05;;;;;;;6.80;2.67;;;;;;;;;;4994141;28;20445;-66
2022/11/08 01:50:31;;;;;;;2.73;2.50;;;;;;;;;;4994607;28;20908;-66
2022/11/08 01:52:57;;;;;;;3.00;2.80;;;;;;;;;;4994086;28;20421;-66
2022/11/08 01:55:28;;;;;;;2.83;2.47;;;;;;;;;;4993690;28;20576;-66
2022/11/08 01:57:57;;;;;;;1.67;1.67;;;;;;;;;;4994322;28;20774;-66
2022/11/08 02:00:23;;;;;;;1.83;1.73;;;;;;;;;;4994492;28;20421;-66
2022/11/08 02:02:53;;;;;;;2.20;2.10;;;;;;;;;;4994161;28;20417;-67
2022/11/08 02:05:25;;;;;;;5.87;1.97;;;;;;;;;;4994404;28;20905;-66
2022/11/08 02:08:04;;;;;;;1.50;1.50;;;;;;;;;;4994040;28;20476;-66
2022/11/08 02:10:34;;;;;;;2.30;2.10;;;;;;;;;;4993705;28;20428;-66
2022/11/08 02:13:00;;;;;;;9.57;2.67;;;;;;;;;;4994084;28;20935;-67
2022/11/08 02:15:26;;;;;;;2.47;2.37;;;;;;;;;;4993595;28;20977;-66
2022/11/08 02:17:53;;;;;;;2.00;1.90;;;;;;;;;;4994306;28;20413;-66
2022/11/08 02:20:20;;;;;;;2.50;2.30;;;;;;;;;;4993704;28;20463;-67
2022/11/08 02:22:48;;;;;;;4.63;2.07;;;;;;;;;;4993743;28;20758;-67
2022/11/08 02:25:14;;;;;;;2.00;1.90;;;;;;;;;;4992397;28;20425;-66
2022/11/08 02:27:40;;;;;;;2.20;1.90;;;;;;;;;;4993923;28;20508;-66
2022/11/08 02:30:06;;;;;;;2.47;2.30;;;;;;;;;;4994186;28;20420;-66
2022/11/08 02:32:39;;;;;;;2.53;2.40;;;;;;;;;;4993727;28;20505;-66
2022/11/08 02:35:06;;;;;;;2.53;2.30;;;;;;;;;;4993830;28;20473;-66
2022/11/08 02:37:32;;;;;;;5.80;2.53;;;;;;;;;;4993584;28;20419;-67
2022/11/08 02:39:58;;;;;;;2.60;2.40;;;;;;;;;;4993491;28;20435;-67
2022/11/08 02:42:24;;;;;;;2.30;2.10;;;;;;;;;;4993872;28;20414;-67
2022/11/08 02:44:50;;;;;;;2.70;2.50;;;;;;;;;;4994080;28;20906;-67
2022/11/08 02:47:16;;;;;;;3.00;2.67;;;;;;;;;;4993456;28;20452;-67
2022/11/08 02:49:42;;;;;;;2.13;1.73;;;;;;;;;;4993501;28;20432;-66
2022/11/08 02:52:08;;;;;;;11.60;2.70;;;;;;;;;;4993687;28;20422;-66
2022/11/08 02:54:34;;;;;;;2.80;2.60;;;;;;;;;;4993592;28;20421;-66
2022/11/08 02:57:00;;;;;;;2.73;2.63;;;;;;;;;;4993446;28;20445;-66
2022/11/08 02:59:26;;;;;;;2.40;2.20;;;;;;;;;;4993453;28;20427;-66
2022/11/08 03:01:52;;;;;;;3.47;2.00;;;;;;;;;;4993397;28;20428;-66
2022/11/08 03:04:18;;;;;;;2.50;2.40;;;;;;;;;;4993907;28;20897;-66
2022/11/08 03:06:44;;;;;;;2.50;2.33;;;;;;;;;;4995500;28;20452;-66
2022/11/08 03:09:10;;;;;;;2.13;2.10;;;;;;;;;;4997570;28;20412;-66
2022/11/08 03:11:37;;;;;;;1.43;1.33;;;;;;;;;;4997223;28;20543;-66
2022/11/08 03:14:03;;;;;;;2.27;2.07;;;;;;;;;;4996918;28;20520;-66
2022/11/08 03:16:29;;;;;;;3.10;2.00;;;;;;;;;;4997056;28;20554;-66
2022/11/08 03:18:55;;;;;;;3.80;2.43;;;;;;;;;;4996910;28;20421;-66
2022/11/08 03:21:21;;;;;;;3.33;1.93;;;;;;;;;;4997380;28;20963;-66
2022/11/08 03:23:47;;;;;;;4.10;2.53;;;;;;;;;;4997252;28;20786;-66
2022/11/08 03:26:13;;;;;;;5.23;2.63;;;;;;;;;;4996590;28;20939;-66
2022/11/08 03:28:41;;;;;;;4.87;2.70;;;;;;;;;;4996970;28;20413;-66
2022/11/08 03:31:07;;;;;;;2.20;2.10;;;;;;;;;;4996873;28;20433;-66
2022/11/08 03:33:33;;;;;;;4.30;2.70;;;;;;;;;;4996563;28;20456;-66
2022/11/08 03:35:59;;;;;;;3.77;2.70;;;;;;;;;;4996472;28;20483;-66
2022/11/08 03:38:25;;;;;;;3.07;2.77;;;;;;;;;;4996682;28;20413;-66
2022/11/08 03:40:51;;;;;;;2.73;2.63;;;;;;;;;;4996376;28;20906;-66
2022/11/08 03:43:17;;;;;;;2.47;2.37;;;;;;;;;;4996329;28;20425;-66
2022/11/08 03:45:43;;;;;;;2.90;2.80;;;;;;;;;;4996605;28;20421;-66
2022/11/08 03:48:08;;;;;;;4.53;3.97;;;;;;;;;;4996560;28;20781;-66
2022/11/08 03:50:35;;;;;;;3.33;3.00;;;;;;;;;;4996288;28;20417;-66
2022/11/08 03:53:01;;;;;;;5.30;3.03;;;;;;;;;;4996228;28;20893;-66
2022/11/08 03:55:27;;;;;;;10.30;2.77;;;;;;;;;;4996091;28;20530;-66
2022/11/08 03:57:53;;;;;;;3.07;3.07;;;;;;;;;;4996130;28;20468;-66
2022/11/08 04:00:21;;;;;;;2.80;2.60;;;;;;;;;;4996032;28;20417;-67
2022/11/08 04:02:47;;;;;;;2.80;2.60;;;;;;;;;;4996585;28;20456;-66
2022/11/08 04:05:13;;;;;;;2.93;2.43;;;;;;;;;;4995982;28;20858;-66
2022/11/08 04:07:40;;;;;;;3.80;3.53;;;;;;;;;;4996019;28;20473;-66
2022/11/08 04:10:07;;;;;;;2.57;2.47;;;;;;;;;;4996155;28;20425;-66
2022/11/08 04:15:19;;;;;;;5.00;2.73;;;;;;;;;;4996121;28;21027;-66
2022/11/08 04:23:16;;;;;;;2.90;2.70;;;;;;;;;;4995925;28;20811;-66
2022/11/08 04:25:43;;;;;;;2.50;2.30;;;;;;;;;;4995567;28;20437;-66
2022/11/08 04:28:09;;;;;;;7.70;3.50;;;;;;;;;;4996126;28;20442;-66
2022/11/08 04:30:35;;;;;;;3.50;3.30;;;;;;;;;;4995657;28;20952;-66
2022/11/08 04:33:02;;;;;;;2.80;2.60;;;;;;;;;;4996309;28;20901;-66
2022/11/08 04:35:29;;;;;;;3.43;3.23;;;;;;;;;;4995549;28;20511;-66
2022/11/08 04:37:59;;;;;;;2.90;2.80;;;;;;;;;;4995968;28;20519;-66
2022/11/08 04:40:25;;;;;;;3.77;2.53;;;;;;;;;;4995600;28;20445;-66
2022/11/08 04:42:50;;;;;;;3.27;3.07;;;;;;;;;;4995538;28;20456;-66
2022/11/08 04:45:16;;;;;;;2.20;2.20;;;;;;;;;;4995233;28;20431;-66
2022/11/08 04:47:46;;;;;;;4.20;3.40;;;;;;;;;;4995536;28;20460;-66
2022/11/08 04:50:12;;;;;;;6.17;5.37;;;;;;;;;;4995181;28;20924;-66
2022/11/08 04:52:38;;;;;;;4.73;4.53;;;;;;;;;;4995118;28;20413;-66
2022/11/08 04:55:04;;;;;;;4.60;4.30;;;;;;;;;;4994905;28;20560;-66
2022/11/08 04:57:30;;;;;;;4.40;4.10;;;;;;;;;;4995025;28;20420;-66
2022/11/08 04:59:56;;;;;;;4.70;4.30;;;;;;;;;;4994940;28;20483;-66
2022/11/08 05:02:22;;;;;;;4.23;3.93;;;;;;;;;;4995200;28;20421;-66
2022/11/08 05:04:48;;;;;;;3.03;2.93;;;;;;;;;;4995375;28;20910;-66
2022/11/08 05:07:14;;;;;;;4.63;3.60;;;;;;;;;;4994776;28;20464;-66
2022/11/08 05:09:40;;;;;;;3.70;3.50;;;;;;;;;;4994992;28;20416;-66
2022/11/08 05:12:06;;;;;;;4.77;4.27;;;;;;;;;;4994716;28;20417;-66
2022/11/08 05:14:32;;;;;;;6.47;4.53;;;;;;;;;;4994664;28;20425;-66
2022/11/08 05:16:58;;;;;;;3.80;3.50;;;;;;;;;;4994647;28;20480;-67
2022/11/08 05:24:53;;;;;;;6.73;3.43;;;;;;;;;;4995062;28;20413;-66
2022/11/08 05:27:19;;;;;;;3.73;3.33;;;;;;;;;;4994467;28;20517;-66
2022/11/08 05:29:45;;;;;;;4.43;3.40;;;;;;;;;;4993973;28;20909;-66
2022/11/08 05:32:11;;;;;;;3.10;3.00;;;;;;;;;;4994390;28;20440;-66
2022/11/08 05:34:37;;;;;;;5.53;2.63;;;;;;;;;;4994262;28;20422;-66
2022/11/08 05:37:03;;;;;;;5.10;2.87;;;;;;;;;;4994274;28;20516;-66
2022/11/08 05:39:29;;;;;;;5.80;4.40;;;;;;;;;;4994499;28;20417;-66
2022/11/08 05:41:55;;;;;;;3.70;3.43;;;;;;;;;;4994563;28;20874;-66
2022/11/08 05:44:21;;;;;;;5.17;4.67;;;;;;;;;;4994202;28;20413;-66
2022/11/08 05:46:47;;;;;;;4.57;3.67;;;;;;;;;;4994446;28;20456;-66
2022/11/08 05:49:13;;;;;;;3.33;3.03;;;;;;;;;;4994705;28;20425;-66
2022/11/08 05:51:39;;;;;;;4.23;3.93;;;;;;;;;;4994363;28;20466;-66
2022/11/08 05:54:06;;;;;;;5.50;4.50;;;;;;;;;;4994326;28;20471;-66
2022/11/08 05:56:32;;;;;;;10.00;7.17;;;;;;;;;;4994194;28;20483;-66
2022/11/08 05:58:58;;;;;;;7.53;6.60;;;;;;;;;;4994222;28;20413;-66
2022/11/08 06:01:24;;;;;;;9.63;7.60;;;;;;;;;;4992751;28;20431;-66
2022/11/08 06:03:50;;;;;;;7.67;6.93;;;;;;;;;;4994487;28;20417;-66
2022/11/08 06:06:18;;;;;;;3.80;3.60;;;;;;;;;;4993828;28;20441;-66
2022/11/08 06:08:45;;;;;;;2.57;2.47;;;;;;;;;;4994309;28;20500;-66
2022/11/08 06:11:13;;;;;;;3.13;2.93;;;;;;;;;;4993659;28;20968;-66
2022/11/08 06:13:39;;;;;;;2.70;2.60;;;;;;;;;;4993449;28;20421;-66
2022/11/08 06:16:06;;;;;;;2.50;2.40;;;;;;;;;;4992228;28;20476;-66
2022/11/08 06:18:32;;;;;;;3.03;2.83;;;;;;;;;;4992403;28;20528;-67
2022/11/08 06:20:59;;;;;;;3.30;3.03;;;;;;;;;;4993667;28;20893;-66
2022/11/08 06:23:25;;;;;;;2.70;2.50;;;;;;;;;;4993702;28;20787;-66
2022/11/08 06:25:51;;;;;;;2.60;2.40;;;;;;;;;;4993832;28;20413;-66
2022/11/08 06:28:17;;;;;;;6.70;2.57;;;;;;;;;;4993847;28;20840;-67
2022/11/08 06:30:43;;;;;;;4.70;2.70;;;;;;;;;;4993569;28;20440;-66
2022/11/08 06:33:09;;;;;;;3.67;2.87;;;;;;;;;;4993939;28;20416;-66
2022/11/08 06:35:36;;;;;;;2.67;2.47;;;;;;;;;;4993476;28;20461;-66
2022/11/08 06:38:02;;;;;;;12.23;3.93;;;;;;;;;;4993766;28;20469;-67
2022/11/08 06:40:29;;;;;;;4.60;2.80;;;;;;;;;;4995777;28;20551;-66
2022/11/08 06:42:57;;;;;;;2.33;2.33;;;;;;;;;;4996976;28;20935;-67
2022/11/08 06:45:23;;;;;;;7.70;4.30;;;;;;;;;;4997227;28;20865;-67
2022/11/08 06:47:49;;;;;;;3.60;3.30;;;;;;;;;;4997197;28;20412;-66
2022/11/08 06:50:15;;;;;;;2.97;2.20;;;;;;;;;;4997378;28;20425;-66
2022/11/08 06:52:41;;;;;;;2.90;2.77;;;;;;;;;;4997553;28;20413;-67
2022/11/08 06:55:07;;;;;;;2.60;2.50;;;;;;;;;;4996930;28;20489;-66
2022/11/08 06:57:33;;;;;;;2.60;2.40;;;;;;;;;;4997395;28;20421;-65
2022/11/08 06:59:59;;;;;;;3.27;1.97;;;;;;;;;;4997278;28;20483;-69
2022/11/08 07:02:25;;;;;;;14.43;2.80;;;;;;;;;;4997393;28;20782;-67
2022/11/08 07:04:51;;;;;;;2.43;2.27;;;;;;;;;;4997365;28;20436;-67
2022/11/08 07:07:17;;;;;;;12.43;3.03;;;;;;;;;;4996752;28;20480;-67
2022/11/08 07:09:43;;;;;;;3.60;3.30;;;;;;;;;;4996809;28;20784;-66
2022/11/08 07:12:09;;;;;;;5.30;3.60;;;;;;;;;;4997186;28;20478;-66
2022/11/08 07:14:35;;;;;;;2.60;2.40;;;;;;;;;;4997284;28;20520;-67
2022/11/08 07:17:01;;;;;;;3.13;3.03;;;;;;;;;;4996981;28;20913;-67
2022/11/08 07:19:27;;;;;;;4.10;3.40;;;;;;;;;;4996798;28;20429;-66
2022/11/08 07:21:53;;;;;;;10.27;4.40;;;;;;;;;;4996802;28;20508;-66
2022/11/08 07:24:19;;;;;;;7.20;4.00;;;;;;;;;;4996757;28;20428;-66
2022/11/08 07:26:45;;;;;;;4.17;3.87;;;;;;;;;;4997493;28;20479;-66
2022/11/08 07:29:11;;;;;;;4.13;3.83;;;;;;;;;;4996672;28;20429;-67
2022/11/08 07:31:37;;;;;;;4.03;3.33;;;;;;;;;;4996571;28;20433;-67
2022/11/08 07:34:03;;;;;;;4.17;3.87;;;;;;;;;;4996706;28;20425;-66
2022/11/08 07:36:29;;;;;;;3.17;2.97;;;;;;;;;;4996749;28;20968;-67
2022/11/08 07:38:55;;;;;;;5.73;5.03;;;;;;;;;;4996490;28;20425;-67
2022/11/08 07:41:21;;;;;;;4.60;4.30;;;;;;;;;;4996779;28;20409;-66
2022/11/08 07:43:48;;;;;;;6.00;5.20;;;;;;;;;;4996499;28;20428;-67
2022/11/08 07:46:13;;;;;;;5.30;2.90;;;;;;;;;;4996584;28;20421;-66
2022/11/08 07:48:39;;;;;;;3.27;3.10;;;;;;;;;;4995101;28;20944;-67
2022/11/08 07:51:05;;;;;;;3.33;3.10;;;;;;;;;;4995510;28;20479;-67
2022/11/08 07:53:31;;;;;;;4.93;2.60;;;;;;;;;;4996106;28;20428;-67
2022/11/08 07:55:57;;;;;;;4.70;3.33;;;;;;;;;;4995701;28;20479;-66
2022/11/08 07:58:23;;;;;;;5.50;2.43;;;;;;;;;;4996398;28;20413;-66
2022/11/08 08:00:50;;;;;;;3.80;3.60;;;;;;;;;;4996049;28;20425;-67
2022/11/08 08:03:16;;;;;;;3.97;2.90;;;;;;;;;;4996028;28;20537;-67
2022/11/08 08:05:42;;;;;;;3.30;3.20;;;;;;;;;;4995642;28;20571;-66
2022/11/08 08:08:09;;;;;;;6.83;4.87;;;;;;;;;;4995312;28;20468;-66
2022/11/08 08:10:36;;;;;;;3.27;3.00;;;;;;;;;;4995761;28;20779;-67
2022/11/08 08:13:02;;;;;;;8.67;3.90;;;;;;;;;;4996108;28;20433;-67
2022/11/08 08:15:28;;;;;;;7.20;3.53;;;;;;;;;;4995964;28;20588;-67
2022/11/08 08:17:54;;;;;;;4.03;3.07;;;;;;;;;;4995686;28;20417;-67
2022/11/08 08:20:20;;;;;;;2.83;2.80;;;;;;;;;;4995806;28;20505;-67
2022/11/08 08:22:46;;;;;;;3.90;3.13;;;;;;;;;;4996236;28;20417;-66
2022/11/08 08:25:13;;;;;;;4.03;3.47;;;;;;;;;;4995430;28;20908;-67
2022/11/08 08:27:39;;;;;;;3.97;3.77;;;;;;;;;;4995579;28;20776;-67
2022/11/08 08:30:05;;;;;;;5.17;3.70;;;;;;;;;;4995527;28;20885;-66
2022/11/08 08:32:31;;;;;;;8.97;3.67;;;;;;;;;;4995799;28;20436;-67
2022/11/08 08:34:57;;;;;;;6.10;3.63;;;;;;;;;;4995330;28;20469;-68
2022/11/08 08:37:23;;;;;;;4.40;3.70;;;;;;;;;;4994199;28;20444;-69
2022/11/08 08:39:49;;;;;;;9.10;3.50;;;;;;;;;;4995613;28;20413;-67
2022/11/08 08:42:15;;;;;;;4.03;3.27;;;;;;;;;;4995613;28;20988;-67
2022/11/08 08:44:41;;;;;;;5.50;4.30;;;;;;;;;;4995394;28;20475;-66
2022/11/08 08:47:07;;;;;;;4.77;4.47;;;;;;;;;;4995210;28;20428;-67
2022/11/08 08:49:33;;;;;;;4.87;3.90;;;;;;;;;;4995558;28;20417;-67
2022/11/08 08:51:59;;;;;;;13.13;3.80;;;;;;;;;;4995419;28;20785;-67
2022/11/08 08:54:25;;;;;;;11.97;6.90;;;;;;;;;;4995110;28;20413;-68
2022/11/08 08:56:52;;;;;;;10.77;6.10;;;;;;;;;;4995286;28;20953;-67
2022/11/08 08:59:18;;;;;;;4.40;3.60;;;;;;;;;;4995981;28;20417;-66
2022/11/08 09:01:44;;;;;;;3.70;3.50;;;;;;;;;;4995216;28;20936;-66
2022/11/08 09:04:10;;;;;;;18.63;3.63;;;;;;;;;;4994897;28;20759;-67
2022/11/08 09:06:36;;;;;;;3.67;3.57;;;;;;;;;;4995135;28;20436;-67
2022/11/08 09:09:02;;;;;;;3.60;3.40;;;;;;;;;;4994581;28;20471;-67
2022/11/08 09:11:28;;;;;;;2.73;2.53;;;;;;;;;;4995004;28;20778;-67
2022/11/08 09:13:54;;;;;;;2.63;2.53;;;;;;;;;;4994728;28;20921;-67
2022/11/08 09:16:20;;;;;;;2.60;2.50;;;;;;;;;;4994890;28;20539;-67
2022/11/08 09:18:46;;;;;;;3.40;3.10;;;;;;;;;;4994901;28;20416;-67
2022/11/08 09:21:12;;;;;;;3.17;2.90;;;;;;;;;;4995158;28;20902;-67
2022/11/08 09:23:40;;;;;;;18.10;7.20;;;;;;;;;;4994788;28;20467;-66
2022/11/08 09:26:06;;;;;;;19.03;11.07;;;;;;;;;;4994567;28;20406;-67
2022/11/08 09:28:33;;;;;;;5.20;4.70;;;;;;;;;;4994488;28;20425;-68
2022/11/08 09:31:03;;;;;;;4.40;4.10;;;;;;;;;;4994408;28;20905;-67
2022/11/08 09:33:29;;;;;;;3.17;2.97;;;;;;;;;;4994743;28;20413;-66
2022/11/08 09:35:55;;;;;;;9.40;5.43;;;;;;;;;;4994307;28;20480;-66
2022/11/08 09:38:21;;;;;;;3.77;3.60;;;;;;;;;;4994556;28;20417;-66
2022/11/08 09:41:01;;;;;;;4.60;3.60;;;;;;;;;;4993947;28;20440;-66
2022/11/08 09:43:38;;;;;;;3.30;3.10;;;;;;;;;;4994459;28;20413;-74
2022/11/08 09:46:08;;;;;;;3.17;3.03;;;;;;;;;;4994067;28;20752;-63
2022/11/08 09:48:36;;;;;;;2.70;2.60;;;;;;;;;;4994451;28;20417;-68
2022/11/08 09:51:22;;;;;;;2.97;2.87;;;;;;;;;;4994015;28;20917;-67
2022/11/08 09:53:52;;;;;;;3.73;2.97;;;;;;;;;;4994300;28;20416;-67
2022/11/08 09:56:24;;;;;;;2.70;2.60;;;;;;;;;;4994140;28;20557;-66
2022/11/08 09:58:53;;;;;;;3.10;3.00;;;;;;;;;;4993967;28;20503;-68
2022/11/08 10:01:20;;;;;;;4.10;2.97;;;;;;;;;;4994180;28;20512;-65
2022/11/08 10:03:51;;;;;;;2.40;2.20;;;;;;;;;;4993869;28;20901;-68
2022/11/08 10:06:37;;;;;;;2.87;2.17;;;;;;;;;;4993743;28;20436;-67
2022/11/08 10:09:09;;;;;;;2.60;2.50;;;;;;;;;;4993670;28;20527;-69
2022/11/08 10:11:55;;;;;;;2.43;2.40;;;;;;;;;;4993943;28;20440;-68
2022/11/08 10:14:36;;;;;;;3.90;2.40;;;;;;;;;;4993438;28;20413;-67
2022/11/08 10:17:16;;;;;;;2.30;2.03;;;;;;;;;;4994008;28;20409;-69
2022/11/08 10:19:42;;;;;;;3.07;2.30;;;;;;;;;;4994013;28;20496;-68
2022/11/08 10:22:12;;;;;;;6.43;2.87;;;;;;;;;;4994021;28;20413;-67
2022/11/08 10:24:44;;;;;;;12.27;2.70;;;;;;;;;;4993597;28;20441;-66
2022/11/08 10:27:14;;;;;;;4.23;3.03;;;;;;;;;;4994014;28;20402;-66
2022/11/08 10:29:42;;;;;;;3.97;2.70;;;;;;;;;;4993880;28;20429;-67
2022/11/08 10:32:19;;;;;;;2.77;2.50;;;;;;;;;;4993703;28;20416;-67
2022/11/08 10:34:48;;;;;;;2.57;2.23;;;;;;;;;;4993799;28;20452;-67
2022/11/08 10:37:16;;;;;;;7.93;2.63;;;;;;;;;;4993525;28;20425;-67
2022/11/08 10:39:44;;;;;;;3.83;2.03;;;;;;;;;;4993543;28;20422;-69
2022/11/08 10:42:29;;;;;;;1.53;1.43;;;;;;;;;;4993446;28;20516;-67
2022/11/08 10:44:55;;;;;;;2.20;2.10;;;;;;;;;;4993440;28;20849;-67
2022/11/08 10:47:25;;;;;;;3.33;2.47;;;;;;;;;;4992303;28;20449;-67
2022/11/08 10:49:53;;;;;;;5.70;2.10;;;;;;;;;;4992300;28;20493;-67
2022/11/08 10:52:37;;;;;;;1.97;1.90;;;;;;;;;;4992162;28;20508;-67
2022/11/08 10:55:05;;;;;;;1.40;1.40;;;;;;;;;;4993185;28;20866;-68
2022/11/08 10:57:31;;;;;;;1.93;1.90;;;;;;;;;;4993498;28;20925;-68
2022/11/08 11:00:14;;;;;;;1.50;1.40;;;;;;;;;;4993696;28;20424;-68
2022/11/08 11:02:40;;;;;;;4.10;2.40;;;;;;;;;;4993685;28;20956;-66
2022/11/08 11:05:22;;;;;;;1.43;1.33;;;;;;;;;;4993317;28;20413;-68
2022/11/08 11:07:59;;;;;;;4.40;1.80;;;;;;;;;;4993393;28;20484;-68
2022/11/08 11:10:28;;;;;;;2.87;1.50;;;;;;;;;;4993331;28;20413;-69
2022/11/08 11:13:06;;;;;;;1.23;0.97;;;;;;;;;;4993007;28;20505;-68
2022/11/08 11:15:33;;;;;;;1.43;1.43;;;;;;;;;;4993359;28;20472;-67
2022/11/08 11:17:59;;;;;;;3.43;1.50;;;;;;;;;;4993574;28;20417;-69
2022/11/08 11:20:26;;;;;;;4.00;1.67;;;;;;;;;;4993475;28;20480;-68
2022/11/08 11:22:52;;;;;;;2.33;2.23;;;;;;;;;;4993918;28;20425;-69
2022/11/08 11:25:19;;;;;;;3.90;1.40;;;;;;;;;;4993069;28;20429;-68
2022/11/08 11:27:53;;;;;;;8.10;5.80;;;;;;;;;;4994274;28;20421;-67
2022/11/08 11:30:28;;;;;;;0.80;0.80;;;;;;;;;;4997475;28;20409;-67
2022/11/08 11:33:05;;;;;;;6.77;3.53;;;;;;;;;;4996881;28;20500;-69
2022/11/08 11:35:35;;;;;;;2.90;2.70;;;;;;;;;;4997031;28;20444;-68
2022/11/08 11:38:03;;;;;;;3.33;1.70;;;;;;;;;;4996533;28;20538;-68
2022/11/08 11:40:29;;;;;;;11.00;8.87;;;;;;;;;;4996288;28;20418;-69
2022/11/08 11:42:57;;;;;;;1.70;1.70;;;;;;;;;;4996439;28;20429;-69
2022/11/08 11:45:29;;;;;;;2.67;1.57;;;;;;;;;;4996805;28;20409;-67
2022/11/08 11:47:57;;;;;;;3.23;2.60;;;;;;;;;;4996347;28;20417;-66
2022/11/08 11:50:33;;;;;;;0.90;0.90;;;;;;;;;;4995118;28;20429;-70
2022/11/08 11:53:00;;;;;;;2.97;0.70;;;;;;;;;;4996089;28;20423;-68
2022/11/08 11:55:38;;;;;;;0.73;0.73;;;;;;;;;;4996231;28;20900;-69
2022/11/08 11:58:15;;;;;;;1.57;1.47;;;;;;;;;;4996092;28;20748;-69
2022/11/08 12:00:46;;;;;;;10.87;6.17;;;;;;;;;;4996023;28;20421;-68
2022/11/08 12:03:20;;;;;;;2.90;2.80;;;;;;;;;;4997034;28;20940;-68
2022/11/08 12:06:03;;;;;;;8.30;5.10;;;;;;;;;;4996254;28;20414;-67
2022/11/08 12:08:32;;;;;;;16.90;10.40;;;;;;;;;;4995747;28;20549;-68
2022/11/08 12:11:04;;;;;;;3.30;3.20;;;;;;;;;;4996153;28;20423;-67
2022/11/08 12:13:39;;;;;;;2.10;1.60;;;;;;;;;;4996424;28;20488;-68
2022/11/08 12:16:23;;;;;;;1.93;1.10;;;;;;;;;;4995894;28;21028;-68
2022/11/08 12:18:56;;;;;;;6.17;2.10;;;;;;;;;;4996060;28;20425;-68
2022/11/08 12:21:46;;;;;;;1.10;1.10;;;;;;;;;;4995881;28;20862;-69
2022/11/08 12:24:12;;;;;;;1.30;1.30;;;;;;;;;;4995609;28;20488;-67
2022/11/08 12:26:38;;;;;;;1.70;1.70;;;;;;;;;;4994257;28;20441;-67
2022/11/08 12:29:24;;;;;;;1.47;1.40;;;;;;;;;;4994255;28;20414;-67
2022/11/08 12:31:54;;;;;;;2.10;1.90;;;;;;;;;;4995662;28;20425;-67
2022/11/08 12:34:23;;;;;;;2.00;1.90;;;;;;;;;;4995717;28;20901;-68
2022/11/08 12:37:00;;;;;;;11.80;6.00;;;;;;;;;;4995977;28;20472;-67
2022/11/08 12:39:26;;;;;;;5.40;2.17;;;;;;;;;;4995396;28;20401;-68
2022/11/08 12:41:55;;;;;;;2.70;2.50;;;;;;;;;;4995522;28;20516;-68
2022/11/08 12:44:20;;;;;;;10.83;7.43;;;;;;;;;;4995170;28;20909;-68
2022/11/08 12:47:02;;;;;;;8.30;5.97;;;;;;;;;;4995384;28;20437;-68
2022/11/08 12:49:28;;;;;;;2.80;2.10;;;;;;;;;;4994994;28;20421;-67
2022/11/08 12:52:00;;;;;;;2.40;2.30;;;;;;;;;;4995067;28;20825;-68
2022/11/08 12:54:31;;;;;;;3.70;0.70;;;;;;;;;;4994825;28;20913;-67
2022/11/08 12:56:59;;;;;;;0.80;0.80;;;;;;;;;;4994562;28;20480;-68
2022/11/08 12:59:38;;;;;;;0.60;0.60;;;;;;;;;;4995371;28;20417;-68
2022/11/08 13:02:04;;;;;;;0.60;0.60;;;;;;;;;;4994674;28;20763;-69
2022/11/08 13:04:37;;;;;;;3.83;1.00;;;;;;;;;;4995191;28;20428;-68
2022/11/08 13:07:22;;;;;;;0.50;0.50;;;;;;;;;;4994652;28;20905;-68
2022/11/08 13:10:06;;;;;;;0.70;0.70;;;;;;;;;;4994836;28;20787;-67
2022/11/08 13:12:32;;;;;;;2.10;1.10;;;;;;;;;;4994880;28;20492;-67
2022/11/08 13:14:59;;;;;;;1.80;1.10;;;;;;;;;;4994883;28;20989;-68
2022/11/08 13:17:26;;;;;;;0.90;0.90;;;;;;;;;;4995014;28;20917;-68
2022/11/08 13:19:52;;;;;;;0.80;0.80;;;;;;;;;;4995409;28;20426;-67
2022/11/08 13:22:30;;;;;;;1.20;1.20;;;;;;;;;;4994627;28;20460;-69
2022/11/08 13:24:57;;;;;;;5.77;3.20;;;;;;;;;;4994838;28;20424;-68
2022/11/08 13:27:23;;;;;;;16.02;9.65;;;;;;;;;;4994472;28;20453;-62
2022/11/08 13:29:50;;;;;;;1.87;1.77;;;;;;;;;;4994587;28;20194;-69
2022/11/08 13:32:28;;;;;;;2.27;2.17;;;;;;;;;;4994445;28;20425;-68
2022/11/08 13:35:03;;;;;;;0.97;0.97;;;;;;;;;;4994377;28;20437;-68
2022/11/08 13:37:48;;;;;;;3.40;1.10;;;;;;;;;;4994616;28;20511;-67
2022/11/08 13:40:20;;;;;;;1.50;1.40;;;;;;;;;;4994666;28;20456;-66
2022/11/08 13:45:50;;;;;;;1.60;1.00;;;;;;;;;;4994219;28;20822;-67
2022/11/08 13:48:35;;;;;;;0.87;0.87;;;;;;;;;;4993284;28;20476;-67
2022/11/08 13:51:25;;;;;;;3.63;1.47;;;;;;;;;;4992427;28;20421;-68
2022/11/08 13:53:53;;;;;;;2.07;2.07;;;;;;;;;;4995869;28;20479;-68
2022/11/08 13:56:37;;;;;;;1.10;1.10;;;;;;;;;;4994001;28;20473;-67
2022/11/08 13:59:23;;;;;;;1.10;1.10;;;;;;;;;;4994041;28;20779;-68
2022/11/08 14:01:57;;;;;;;3.50;1.10;;;;;;;;;;4992603;28;20427;-68
2022/11/08 14:04:28;;;;;;;5.60;1.97;;;;;;;;;;4994221;28;20921;-67
2022/11/08 14:06:54;;;;;;;3.00;1.83;;;;;;;;;;4993569;28;20957;-67
2022/11/08 14:09:27;;;;;;;1.40;1.33;;;;;;;;;;4992592;28;20579;-66
2022/11/08 14:11:53;;;;;;;12.03;1.20;;;;;;;;;;4994350;28;20813;-65
2022/11/08 14:14:25;;;;;;;2.00;1.47;;;;;;;;;;4994054;28;20516;-66
2022/11/08 14:16:57;;;;;;;4.33;1.10;;;;;;;;;;4994238;28;20476;-66
2022/11/08 14:19:24;;;;;;;4.63;1.40;;;;;;;;;;4993986;28;20421;-67
2022/11/08 14:21:57;;;;;;;3.43;1.27;;;;;;;;;;4993760;28;20428;-67
2022/11/08 14:24:24;;;;;;;1.10;1.03;;;;;;;;;;4993629;28;20501;-69
2022/11/08 14:26:51;;;;;;;1.97;0.90;;;;;;;;;;4993864;28;20421;-66
2022/11/08 14:29:19;;;;;;;2.67;1.53;;;;;;;;;;4993726;28;20417;-65
2022/11/08 14:31:45;;;;;;;1.07;1.07;;;;;;;;;;4993729;28;20893;-65
2022/11/08 14:34:27;;;;;;;1.10;0.83;;;;;;;;;;4993642;28;20972;-65
2022/11/08 14:36:54;;;;;;;0.80;0.80;;;;;;;;;;4993495;28;20511;-66
2022/11/08 14:39:24;;;;;;;1.20;1.20;;;;;;;;;;4993603;28;20424;-67
2022/11/08 14:41:54;;;;;;;1.17;1.17;;;;;;;;;;4993348;28;20505;-67
2022/11/08 14:44:21;;;;;;;0.87;0.87;;;;;;;;;;4993137;28;20460;-68
2022/11/08 14:46:47;;;;;;;1.60;1.50;;;;;;;;;;4993175;28;20429;-67
2022/11/08 14:49:14;;;;;;;1.80;1.67;;;;;;;;;;4993186;28;20921;-67
2022/11/08 14:51:41;;;;;;;1.27;1.20;;;;;;;;;;4992398;28;20429;-67
2022/11/08 14:54:17;;;;;;;1.00;1.00;;;;;;;;;;4993513;28;20472;-67
2022/11/08 14:56:44;;;;;;;1.37;1.37;;;;;;;;;;4993404;28;21031;-67
2022/11/08 14:59:11;;;;;;;6.00;1.60;;;;;;;;;;4993748;28;20417;-67
2022/11/08 15:01:37;;;;;;;1.70;1.27;;;;;;;;;;4996000;28;20425;-67
2022/11/08 15:04:14;;;;;;;1.30;1.30;;;;;;;;;;4997247;28;20776;-67
2022/11/08 15:06:44;;;;;;;2.00;1.10;;;;;;;;;;4997447;28;20444;-67
2022/11/08 15:09:32;;;;;;;1.10;1.00;;;;;;;;;;4996909;28;20499;-67
2022/11/08 15:11:59;;;;;;;1.53;1.43;;;;;;;;;;4997167;28;20456;-66
2022/11/08 15:14:27;;;;;;;1.20;1.20;;;;;;;;;;4995786;28;20437;-67
2022/11/08 15:16:54;;;;;;;3.63;1.50;;;;;;;;;;4997198;28;20804;-68